sensor_id;sensor_type;location;lat;lon;timestamp;temperature;humidity
48744;DHT22;34538;48.836;9.174;2024-02-21T00:00:54;7.00;99.90
48744;DHT22;34538;48.836;9.174;2024-02-21T00:03:22;7.00;99.90
48744;DHT22;34538;48.836;9.174;2024-02-21T00:05:49;7.00;99.90
48744;DHT22;34538;48.836;9.174;2024-02-21T00:08:17;7.00;99.90
48744;DHT22;34538;48.836;9.174;2024-02-21T00:10:44;6.90;99.90
48744;DHT22;34538;48.836;9.174;2024-02-21T00:13:10;6.90;99.90
48744;DHT22;34538;48.836;9.174;2024-02-21T00:15:37;6.90;99.90
48744;DHT22;34538;48.836;9.174;2024-02-21T00:18:04;6.90;99.90
48744;DHT22;34538;48.836;9.174;2024-02-21T00:20:33;6.90;99.90
48744;DHT22;34538;48.836;9.174;2024-02-21T00:23:00;6.90;99.90
48744;DHT22;34538;48.836;9.174;2024-02-21T00:25:27;6.90;99.90
48744;DHT22;34538;48.836;9.174;2024-02-21T00:27:54;6.90;99.90
48744;DHT22;34538;48.836;9.174;2024-02-21T00:30:20;7.00;99.90
48744;DHT22;34538;48.836;9.174;2024-02-21T00:32:47;7.00;99.90
48744;DHT22;34538;48.836;9.174;2024-02-21T00:35:14;7.00;99.90
48744;DHT22;34538;48.836;9.174;2024-02-21T00:37:42;7.10;99.90
48744;DHT22;34538;48.836;9.174;2024-02-21T00:40:11;7.10;99.90
48744;DHT22;34538;48.836;9.174;2024-02-21T00:42:38;7.10;99.90
48744;DHT22;34538;48.836;9.174;2024-02-21T00:45:06;7.20;99.90
48744;DHT22;34538;48.836;9.174;2024-02-21T00:47:34;7.20;99.90
48744;DHT22;34538;48.836;9.174;2024-02-21T00:50:01;7.20;99.90
48744;DHT22;34538;48.836;9.174;2024-02-21T00:52:28;7.20;99.90
48744;DHT22;34538;48.836;9.174;2024-02-21T00:54:56;7.20;99.90
48744;DHT22;34538;48.836;9.174;2024-02-21T00:57:23;7.20;99.90
48744;DHT22;34538;48.836;9.174;2024-02-21T00:59:51;7.20;99.90
48744;DHT22;34538;48.836;9.174;2024-02-21T01:02:17;7.20;99.90
48744;DHT22;34538;48.836;9.174;2024-02-21T01:04:44;7.30;99.90
48744;DHT22;34538;48.836;9.174;2024-02-21T01:07:11;7.20;99.90
48744;DHT22;34538;48.836;9.174;2024-02-21T01:09:38;7.30;99.90
48744;DHT22;34538;48.836;9.174;2024-02-21T01:12:07;7.30;99.90
48744;DHT22;34538;48.836;9.174;2024-02-21T01:14:34;7.30;99.90
48744;DHT22;34538;48.836;9.174;2024-02-21T01:17:01;7.30;99.90
48744;DHT22;34538;48.836;9.174;2024-02-21T01:19:28;7.30;99.90
48744;DHT22;34538;48.836;9.174;2024-02-21T01:21:54;7.30;99.90
48744;DHT22;34538;48.836;9.174;2024-02-21T01:24:21;7.40;99.90
48744;DHT22;34538;48.836;9.174;2024-02-21T01:26:50;7.40;99.90
48744;DHT22;34538;48.836;9.174;2024-02-21T01:29:18;7.40;99.90
48744;DHT22;34538;48.836;9.174;2024-02-21T01:31:45;7.40;99.90
48744;DHT22;34538;48.836;9.174;2024-02-21T01:34:13;7.40;99.90
48744;DHT22;34538;48.836;9.174;2024-02-21T01:36:40;7.40;99.90
48744;DHT22;34538;48.836;9.174;2024-02-21T01:39:07;7.40;99.90
48744;DHT22;34538;48.836;9.174;2024-02-21T01:41:34;7.40;99.90
48744;DHT22;34538;48.836;9.174;2024-02-21T01:44:01;7.50;99.90
48744;DHT22;34538;48.836;9.174;2024-02-21T01:46:29;7.40;99.90
48744;DHT22;34538;48.836;9.174;2024-02-21T01:48:57;7.40;99.90
48744;DHT22;34538;48.836;9.174;2024-02-21T01:51:24;7.40;99.90
48744;DHT22;34538;48.836;9.174;2024-02-21T01:53:52;7.40;99.90
48744;DHT22;34538;48.836;9.174;2024-02-21T01:56:20;7.40;99.90
48744;DHT22;34538;48.836;9.174;2024-02-21T01:58:47;7.50;99.90
48744;DHT22;34538;48.836;9.174;2024-02-21T02:01:15;7.50;99.90
48744;DHT22;34538;48.836;9.174;2024-02-21T02:03:45;7.50;99.90
48744;DHT22;34538;48.836;9.174;2024-02-21T02:06:12;7.50;99.90
48744;DHT22;34538;48.836;9.174;2024-02-21T02:08:39;7.50;99.90
48744;DHT22;34538;48.836;9.174;2024-02-21T02:11:06;7.50;99.90
48744;DHT22;34538;48.836;9.174;2024-02-21T02:13:33;7.50;99.90
48744;DHT22;34538;48.836;9.174;2024-02-21T02:16:00;7.50;99.90
48744;DHT22;34538;48.836;9.174;2024-02-21T02:18:27;7.50;99.90
48744;DHT22;34538;48.836;9.174;2024-02-21T02:20:55;7.60;99.90
48744;DHT22;34538;48.836;9.174;2024-02-21T02:23:25;7.50;99.90
48744;DHT22;34538;48.836;9.174;2024-02-21T02:25:55;7.60;99.90
48744;DHT22;34538;48.836;9.174;2024-02-21T02:28:22;7.50;99.90
48744;DHT22;34538;48.836;9.174;2024-02-21T02:30:49;7.60;99.90
48744;DHT22;34538;48.836;9.174;2024-02-21T02:33:16;7.60;99.90
48744;DHT22;34538;48.836;9.174;2024-02-21T02:35:44;7.50;99.90
48744;DHT22;34538;48.836;9.174;2024-02-21T02:38:11;7.60;99.90
48744;DHT22;34538;48.836;9.174;2024-02-21T02:40:40;7.60;99.90
48744;DHT22;34538;48.836;9.174;2024-02-21T02:43:07;7.60;99.90
48744;DHT22;34538;48.836;9.174;2024-02-21T02:45:34;7.60;99.90
48744;DHT22;34538;48.836;9.174;2024-02-21T02:48:02;7.60;99.90
48744;DHT22;34538;48.836;9.174;2024-02-21T02:50:28;7.60;99.90
48744;DHT22;34538;48.836;9.174;2024-02-21T02:52:55;7.70;99.90
48744;DHT22;34538;48.836;9.174;2024-02-21T02:55:22;7.70;99.90
48744;DHT22;34538;48.836;9.174;2024-02-21T02:57:50;7.60;99.90
48744;DHT22;34538;48.836;9.174;2024-02-21T03:00:18;7.60;99.90
48744;DHT22;34538;48.836;9.174;2024-02-21T03:02:46;7.60;99.90
48744;DHT22;34538;48.836;9.174;2024-02-21T03:05:16;7.60;99.90
48744;DHT22;34538;48.836;9.174;2024-02-21T03:07:44;7.60;99.90
48744;DHT22;34538;48.836;9.174;2024-02-21T03:10:11;7.60;99.90
48744;DHT22;34538;48.836;9.174;2024-02-21T03:12:38;7.60;99.90
48744;DHT22;34538;48.836;9.174;2024-02-21T03:15:07;7.50;99.90
48744;DHT22;34538;48.836;9.174;2024-02-21T03:17:34;7.50;99.90
48744;DHT22;34538;48.836;9.174;2024-02-21T03:20:01;7.50;99.90
48744;DHT22;34538;48.836;9.174;2024-02-21T03:22:31;7.40;99.90
48744;DHT22;34538;48.836;9.174;2024-02-21T03:24:58;7.40;99.90
48744;DHT22;34538;48.836;9.174;2024-02-21T03:27:25;7.40;99.90
48744;DHT22;34538;48.836;9.174;2024-02-21T03:29:52;7.40;99.90
48744;DHT22;34538;48.836;9.174;2024-02-21T03:32:20;7.30;99.90
48744;DHT22;34538;48.836;9.174;2024-02-21T03:34:47;7.30;99.90
48744;DHT22;34538;48.836;9.174;2024-02-21T03:37:14;7.30;99.90
48744;DHT22;34538;48.836;9.174;2024-02-21T03:39:41;7.30;99.90
48744;DHT22;34538;48.836;9.174;2024-02-21T03:42:08;7.30;99.90
48744;DHT22;34538;48.836;9.174;2024-02-21T03:44:35;7.30;99.90
48744;DHT22;34538;48.836;9.174;2024-02-21T03:47:02;7.30;99.90
48744;DHT22;34538;48.836;9.174;2024-02-21T03:49:30;7.20;99.90
48744;DHT22;34538;48.836;9.174;2024-02-21T03:51:57;7.20;99.90
48744;DHT22;34538;48.836;9.174;2024-02-21T03:54:24;7.20;99.90
48744;DHT22;34538;48.836;9.174;2024-02-21T03:56:51;7.10;99.90
48744;DHT22;34538;48.836;9.174;2024-02-21T03:59:18;7.10;99.90
48744;DHT22;34538;48.836;9.174;2024-02-21T04:01:45;7.10;99.90
48744;DHT22;34538;48.836;9.174;2024-02-21T04:04:12;7.10;99.90
48744;DHT22;34538;48.836;9.174;2024-02-21T04:06:47;7.10;99.90
48744;DHT22;34538;48.836;9.174;2024-02-21T04:09:14;7.10;99.90
48744;DHT22;34538;48.836;9.174;2024-02-21T04:11:41;7.00;99.90
48744;DHT22;34538;48.836;9.174;2024-02-21T04:14:08;7.10;99.90
48744;DHT22;34538;48.836;9.174;2024-02-21T04:16:36;7.00;99.90
48744;DHT22;34538;48.836;9.174;2024-02-21T04:19:03;7.00;99.90
48744;DHT22;34538;48.836;9.174;2024-02-21T04:21:30;7.00;99.90
48744;DHT22;34538;48.836;9.174;2024-02-21T04:23:58;7.00;99.90
48744;DHT22;34538;48.836;9.174;2024-02-21T04:26:25;7.00;99.90
48744;DHT22;34538;48.836;9.174;2024-02-21T04:28:52;7.00;99.90
48744;DHT22;34538;48.836;9.174;2024-02-21T04:31:19;6.90;99.90
48744;DHT22;34538;48.836;9.174;2024-02-21T04:33:45;6.90;99.90
48744;DHT22;34538;48.836;9.174;2024-02-21T04:36:12;6.80;99.90
48744;DHT22;34538;48.836;9.174;2024-02-21T04:38:39;6.80;99.90
48744;DHT22;34538;48.836;9.174;2024-02-21T04:41:08;6.80;99.90
48744;DHT22;34538;48.836;9.174;2024-02-21T04:43:35;6.70;99.90
48744;DHT22;34538;48.836;9.174;2024-02-21T04:46:02;6.70;99.90
48744;DHT22;34538;48.836;9.174;2024-02-21T04:48:29;6.60;99.90
48744;DHT22;34538;48.836;9.174;2024-02-21T04:50:56;6.60;99.90
48744;DHT22;34538;48.836;9.174;2024-02-21T04:53:23;6.50;99.90
48744;DHT22;34538;48.836;9.174;2024-02-21T04:55:49;6.50;99.90
48744;DHT22;34538;48.836;9.174;2024-02-21T04:58:18;6.50;99.90
48744;DHT22;34538;48.836;9.174;2024-02-21T05:00:45;6.50;99.90
48744;DHT22;34538;48.836;9.174;2024-02-21T05:03:11;6.50;99.90
48744;DHT22;34538;48.836;9.174;2024-02-21T05:05:38;6.40;99.90
48744;DHT22;34538;48.836;9.174;2024-02-21T05:08:05;6.40;99.90
48744;DHT22;34538;48.836;9.174;2024-02-21T05:10:32;6.30;99.90
48744;DHT22;34538;48.836;9.174;2024-02-21T05:12:59;6.30;99.90
48744;DHT22;34538;48.836;9.174;2024-02-21T05:15:28;6.30;99.90
48744;DHT22;34538;48.836;9.174;2024-02-21T05:17:55;6.20;99.90
48744;DHT22;34538;48.836;9.174;2024-02-21T05:20:22;6.20;99.90
48744;DHT22;34538;48.836;9.174;2024-02-21T05:22:49;6.10;99.90
48744;DHT22;34538;48.836;9.174;2024-02-21T05:25:15;6.10;99.90
48744;DHT22;34538;48.836;9.174;2024-02-21T05:27:42;6.00;99.90
48744;DHT22;34538;48.836;9.174;2024-02-21T05:30:10;5.90;99.90
48744;DHT22;34538;48.836;9.174;2024-02-21T05:32:39;5.90;99.90
48744;DHT22;34538;48.836;9.174;2024-02-21T05:35:06;5.80;99.90
48744;DHT22;34538;48.836;9.174;2024-02-21T05:37:33;5.80;99.90
48744;DHT22;34538;48.836;9.174;2024-02-21T05:40:00;5.80;99.90
48744;DHT22;34538;48.836;9.174;2024-02-21T05:42:26;5.70;99.90
48744;DHT22;34538;48.836;9.174;2024-02-21T05:44:53;5.70;99.90
48744;DHT22;34538;48.836;9.174;2024-02-21T05:47:20;5.70;99.90
48744;DHT22;34538;48.836;9.174;2024-02-21T05:49:49;5.60;99.90
48744;DHT22;34538;48.836;9.174;2024-02-21T05:52:19;5.60;99.90
48744;DHT22;34538;48.836;9.174;2024-02-21T05:54:46;5.70;99.90
48744;DHT22;34538;48.836;9.174;2024-02-21T05:57:13;5.60;99.90
48744;DHT22;34538;48.836;9.174;2024-02-21T05:59:40;5.60;99.90
48744;DHT22;34538;48.836;9.174;2024-02-21T06:02:07;5.70;99.90
48744;DHT22;34538;48.836;9.174;2024-02-21T06:04:34;5.70;99.90
48744;DHT22;34538;48.836;9.174;2024-02-21T06:07:03;5.70;99.90
48744;DHT22;34538;48.836;9.174;2024-02-21T06:09:30;5.70;99.90
48744;DHT22;34538;48.836;9.174;2024-02-21T06:11:57;5.70;99.90
48744;DHT22;34538;48.836;9.174;2024-02-21T06:14:24;5.80;99.90
48744;DHT22;34538;48.836;9.174;2024-02-21T06:16:51;5.80;99.90
48744;DHT22;34538;48.836;9.174;2024-02-21T06:19:18;5.80;99.90
48744;DHT22;34538;48.836;9.174;2024-02-21T06:21:45;5.80;99.90
48744;DHT22;34538;48.836;9.174;2024-02-21T06:24:13;5.80;99.90
48744;DHT22;34538;48.836;9.174;2024-02-21T06:26:40;5.80;99.90
48744;DHT22;34538;48.836;9.174;2024-02-21T06:29:07;5.80;99.90
48744;DHT22;34538;48.836;9.174;2024-02-21T06:31:35;5.80;99.90
48744;DHT22;34538;48.836;9.174;2024-02-21T06:34:02;5.80;99.90
48744;DHT22;34538;48.836;9.174;2024-02-21T06:36:30;5.80;99.90
48744;DHT22;34538;48.836;9.174;2024-02-21T06:38:56;5.80;99.90
48744;DHT22;34538;48.836;9.174;2024-02-21T06:41:25;5.80;99.90
48744;DHT22;34538;48.836;9.174;2024-02-21T06:43:52;5.70;99.90
48744;DHT22;34538;48.836;9.174;2024-02-21T06:46:25;5.70;99.90
48744;DHT22;34538;48.836;9.174;2024-02-21T06:48:54;5.70;99.90
48744;DHT22;34538;48.836;9.174;2024-02-21T06:51:21;5.70;99.90
48744;DHT22;34538;48.836;9.174;2024-02-21T06:53:48;5.70;99.90
48744;DHT22;34538;48.836;9.174;2024-02-21T06:56:15;5.70;99.90
48744;DHT22;34538;48.836;9.174;2024-02-21T06:58:44;5.70;99.90
48744;DHT22;34538;48.836;9.174;2024-02-21T07:01:11;5.70;99.90
48744;DHT22;34538;48.836;9.174;2024-02-21T07:03:38;5.70;99.90
48744;DHT22;34538;48.836;9.174;2024-02-21T07:06:05;5.70;99.90
48744;DHT22;34538;48.836;9.174;2024-02-21T07:08:32;5.70;99.90
48744;DHT22;34538;48.836;9.174;2024-02-21T07:10:58;5.80;99.90
48744;DHT22;34538;48.836;9.174;2024-02-21T07:13:25;5.70;99.90
48744;DHT22;34538;48.836;9.174;2024-02-21T07:15:53;5.80;99.90
48744;DHT22;34538;48.836;9.174;2024-02-21T07:18:20;5.80;99.90
48744;DHT22;34538;48.836;9.174;2024-02-21T07:20:47;5.90;99.90
48744;DHT22;34538;48.836;9.174;2024-02-21T07:23:14;5.90;99.90
48744;DHT22;34538;48.836;9.174;2024-02-21T07:25:41;6.00;99.90
48744;DHT22;34538;48.836;9.174;2024-02-21T07:28:08;6.10;99.90
48744;DHT22;34538;48.836;9.174;2024-02-21T07:30:35;6.20;99.90
48744;DHT22;34538;48.836;9.174;2024-02-21T07:33:03;6.30;99.90
48744;DHT22;34538;48.836;9.174;2024-02-21T07:35:32;6.40;99.90
48744;DHT22;34538;48.836;9.174;2024-02-21T07:37:59;6.60;99.90
48744;DHT22;34538;48.836;9.174;2024-02-21T07:40:26;6.70;99.90
48744;DHT22;34538;48.836;9.174;2024-02-21T07:42:53;6.80;99.90
48744;DHT22;34538;48.836;9.174;2024-02-21T07:45:19;6.90;99.90
48744;DHT22;34538;48.836;9.174;2024-02-21T07:47:49;7.00;99.90
48744;DHT22;34538;48.836;9.174;2024-02-21T07:50:17;7.10;99.90
48744;DHT22;34538;48.836;9.174;2024-02-21T07:52:45;7.20;99.90
48744;DHT22;34538;48.836;9.174;2024-02-21T07:55:11;7.40;99.90
48744;DHT22;34538;48.836;9.174;2024-02-21T07:57:38;7.40;99.90
48744;DHT22;34538;48.836;9.174;2024-02-21T08:00:06;7.60;99.90
48744;DHT22;34538;48.836;9.174;2024-02-21T08:02:38;7.70;99.90
48744;DHT22;34538;48.836;9.174;2024-02-21T08:05:05;7.80;99.90
48744;DHT22;34538;48.836;9.174;2024-02-21T08:07:33;7.90;99.90
48744;DHT22;34538;48.836;9.174;2024-02-21T08:10:00;8.00;99.90
48744;DHT22;34538;48.836;9.174;2024-02-21T08:12:27;8.10;99.90
48744;DHT22;34538;48.836;9.174;2024-02-21T08:14:54;8.20;99.90
48744;DHT22;34538;48.836;9.174;2024-02-21T08:17:21;8.30;99.90
48744;DHT22;34538;48.836;9.174;2024-02-21T08:19:47;8.40;99.90
48744;DHT22;34538;48.836;9.174;2024-02-21T08:22:15;8.50;99.90
48744;DHT22;34538;48.836;9.174;2024-02-21T08:24:44;8.60;99.90
48744;DHT22;34538;48.836;9.174;2024-02-21T08:27:11;8.60;99.90
48744;DHT22;34538;48.836;9.174;2024-02-21T08:29:37;8.70;99.90
48744;DHT22;34538;48.836;9.174;2024-02-21T08:32:04;8.80;99.90
48744;DHT22;34538;48.836;9.174;2024-02-21T08:34:31;8.90;99.90
48744;DHT22;34538;48.836;9.174;2024-02-21T08:37:00;9.00;99.90
48744;DHT22;34538;48.836;9.174;2024-02-21T08:39:26;9.00;99.90
48744;DHT22;34538;48.836;9.174;2024-02-21T08:41:57;9.10;99.90
48744;DHT22;34538;48.836;9.174;2024-02-21T08:44:24;9.20;99.90
48744;DHT22;34538;48.836;9.174;2024-02-21T08:46:51;9.20;99.90
48744;DHT22;34538;48.836;9.174;2024-02-21T08:49:19;9.30;99.90
48744;DHT22;34538;48.836;9.174;2024-02-21T08:51:45;9.40;99.90
48744;DHT22;34538;48.836;9.174;2024-02-21T08:54:13;9.50;99.90
48744;DHT22;34538;48.836;9.174;2024-02-21T08:56:40;9.50;99.90
48744;DHT22;34538;48.836;9.174;2024-02-21T08:59:08;9.50;99.90
48744;DHT22;34538;48.836;9.174;2024-02-21T09:01:35;9.60;99.90
48744;DHT22;34538;48.836;9.174;2024-02-21T09:04:02;9.60;99.90
48744;DHT22;34538;48.836;9.174;2024-02-21T09:06:30;9.60;99.90
48744;DHT22;34538;48.836;9.174;2024-02-21T09:08:59;9.60;99.90
48744;DHT22;34538;48.836;9.174;2024-02-21T09:11:26;9.70;99.90
48744;DHT22;34538;48.836;9.174;2024-02-21T09:13:53;9.70;99.90
48744;DHT22;34538;48.836;9.174;2024-02-21T09:16:21;9.80;99.90
48744;DHT22;34538;48.836;9.174;2024-02-21T09:18:49;9.80;99.90
48744;DHT22;34538;48.836;9.174;2024-02-21T09:21:16;9.80;99.90
48744;DHT22;34538;48.836;9.174;2024-02-21T09:23:43;9.90;99.90
48744;DHT22;34538;48.836;9.174;2024-02-21T09:26:09;9.90;99.90
48744;DHT22;34538;48.836;9.174;2024-02-21T09:28:39;10.00;99.90
48744;DHT22;34538;48.836;9.174;2024-02-21T09:31:06;10.00;99.90
48744;DHT22;34538;48.836;9.174;2024-02-21T09:33:34;10.00;99.90
48744;DHT22;34538;48.836;9.174;2024-02-21T09:36:01;10.10;99.90
48744;DHT22;34538;48.836;9.174;2024-02-21T09:38:28;10.10;99.90
48744;DHT22;34538;48.836;9.174;2024-02-21T09:40:59;10.20;99.90
48744;DHT22;34538;48.836;9.174;2024-02-21T09:43:26;10.30;99.90
48744;DHT22;34538;48.836;9.174;2024-02-21T09:45:55;10.30;99.90
48744;DHT22;34538;48.836;9.174;2024-02-21T09:48:32;10.40;99.90
48744;DHT22;34538;48.836;9.174;2024-02-21T09:51:02;10.50;99.90
48744;DHT22;34538;48.836;9.174;2024-02-21T09:53:32;10.50;99.90
48744;DHT22;34538;48.836;9.174;2024-02-21T09:56:00;10.60;99.90
48744;DHT22;34538;48.836;9.174;2024-02-21T09:58:29;10.60;99.90
48744;DHT22;34538;48.836;9.174;2024-02-21T10:00:56;10.70;99.90
48744;DHT22;34538;48.836;9.174;2024-02-21T10:03:25;10.70;99.90
48744;DHT22;34538;48.836;9.174;2024-02-21T10:05:52;10.70;99.90
48744;DHT22;34538;48.836;9.174;2024-02-21T10:08:21;10.70;99.90
48744;DHT22;34538;48.836;9.174;2024-02-21T10:10:48;10.80;99.90
48744;DHT22;34538;48.836;9.174;2024-02-21T10:13:24;10.90;99.90
48744;DHT22;34538;48.836;9.174;2024-02-21T10:16:01;10.90;99.90
48744;DHT22;34538;48.836;9.174;2024-02-21T10:18:29;11.00;99.90
48744;DHT22;34538;48.836;9.174;2024-02-21T10:21:03;11.10;99.90
48744;DHT22;34538;48.836;9.174;2024-02-21T10:23:42;11.10;99.90
48744;DHT22;34538;48.836;9.174;2024-02-21T10:26:10;11.20;99.90
48744;DHT22;34538;48.836;9.174;2024-02-21T10:28:38;11.20;99.90
48744;DHT22;34538;48.836;9.174;2024-02-21T10:31:08;11.30;99.90
48744;DHT22;34538;48.836;9.174;2024-02-21T10:33:34;11.40;99.90
48744;DHT22;34538;48.836;9.174;2024-02-21T10:36:08;11.40;99.90
48744;DHT22;34538;48.836;9.174;2024-02-21T10:38:37;11.50;99.90
48744;DHT22;34538;48.836;9.174;2024-02-21T10:41:06;11.60;99.90
48744;DHT22;34538;48.836;9.174;2024-02-21T10:43:38;11.70;99.90
48744;DHT22;34538;48.836;9.174;2024-02-21T10:46:06;11.70;99.90
48744;DHT22;34538;48.836;9.174;2024-02-21T10:48:41;11.80;99.90
48744;DHT22;34538;48.836;9.174;2024-02-21T10:51:15;11.80;99.90
48744;DHT22;34538;48.836;9.174;2024-02-21T10:53:47;11.80;99.90
48744;DHT22;34538;48.836;9.174;2024-02-21T10:56:22;11.80;99.90
48744;DHT22;34538;48.836;9.174;2024-02-21T10:58:50;12.00;99.90
48744;DHT22;34538;48.836;9.174;2024-02-21T11:01:18;12.00;99.90
48744;DHT22;34538;48.836;9.174;2024-02-21T11:03:47;12.00;99.90
48744;DHT22;34538;48.836;9.174;2024-02-21T11:06:16;12.00;99.90
48744;DHT22;34538;48.836;9.174;2024-02-21T11:08:44;12.10;99.90
48744;DHT22;34538;48.836;9.174;2024-02-21T11:11:12;12.10;99.90
48744;DHT22;34538;48.836;9.174;2024-02-21T11:13:44;12.10;99.90
48744;DHT22;34538;48.836;9.174;2024-02-21T11:16:20;12.20;99.90
48744;DHT22;34538;48.836;9.174;2024-02-21T11:18:48;12.20;99.90
48744;DHT22;34538;48.836;9.174;2024-02-21T11:21:15;12.20;99.90
48744;DHT22;34538;48.836;9.174;2024-02-21T11:23:41;12.30;99.90
48744;DHT22;34538;48.836;9.174;2024-02-21T11:26:09;12.30;99.90
48744;DHT22;34538;48.836;9.174;2024-02-21T11:28:36;12.30;99.90
48744;DHT22;34538;48.836;9.174;2024-02-21T11:31:12;12.30;99.90
48744;DHT22;34538;48.836;9.174;2024-02-21T11:33:40;12.40;99.90
48744;DHT22;34538;48.836;9.174;2024-02-21T11:36:08;12.40;99.90
48744;DHT22;34538;48.836;9.174;2024-02-21T11:38:35;12.50;99.90
48744;DHT22;34538;48.836;9.174;2024-02-21T11:41:03;12.50;99.90
48744;DHT22;34538;48.836;9.174;2024-02-21T11:43:34;12.60;99.90
48744;DHT22;34538;48.836;9.174;2024-02-21T11:46:01;12.70;99.90
48744;DHT22;34538;48.836;9.174;2024-02-21T11:48:31;12.70;99.90
48744;DHT22;34538;48.836;9.174;2024-02-21T11:50:58;12.80;99.90
48744;DHT22;34538;48.836;9.174;2024-02-21T11:53:26;12.80;99.90
48744;DHT22;34538;48.836;9.174;2024-02-21T11:55:56;12.90;99.90
48744;DHT22;34538;48.836;9.174;2024-02-21T11:58:23;13.00;99.90
48744;DHT22;34538;48.836;9.174;2024-02-21T12:00:50;13.00;99.90
48744;DHT22;34538;48.836;9.174;2024-02-21T12:03:17;13.00;99.90
48744;DHT22;34538;48.836;9.174;2024-02-21T12:05:46;13.10;99.90
48744;DHT22;34538;48.836;9.174;2024-02-21T12:08:13;13.10;99.90
48744;DHT22;34538;48.836;9.174;2024-02-21T12:10:42;13.10;99.90
48744;DHT22;34538;48.836;9.174;2024-02-21T12:13:10;13.20;99.90
48744;DHT22;34538;48.836;9.174;2024-02-21T12:15:38;13.20;99.90
48744;DHT22;34538;48.836;9.174;2024-02-21T12:18:05;13.20;99.90
48744;DHT22;34538;48.836;9.174;2024-02-21T12:20:32;13.30;99.90
48744;DHT22;34538;48.836;9.174;2024-02-21T12:23:03;13.30;99.90
48744;DHT22;34538;48.836;9.174;2024-02-21T12:25:30;13.30;99.90
48744;DHT22;34538;48.836;9.174;2024-02-21T12:27:57;13.30;99.90
48744;DHT22;34538;48.836;9.174;2024-02-21T12:30:26;13.30;99.90
48744;DHT22;34538;48.836;9.174;2024-02-21T12:32:52;13.30;99.90
48744;DHT22;34538;48.836;9.174;2024-02-21T12:35:20;13.30;99.90
48744;DHT22;34538;48.836;9.174;2024-02-21T12:37:46;13.30;99.90
48744;DHT22;34538;48.836;9.174;2024-02-21T12:40:15;13.30;99.90
48744;DHT22;34538;48.836;9.174;2024-02-21T12:42:42;13.30;99.90
48744;DHT22;34538;48.836;9.174;2024-02-21T12:45:09;13.30;99.90
48744;DHT22;34538;48.836;9.174;2024-02-21T12:47:36;13.40;99.90
48744;DHT22;34538;48.836;9.174;2024-02-21T12:50:05;13.40;99.90
48744;DHT22;34538;48.836;9.174;2024-02-21T12:52:32;13.50;99.90
48744;DHT22;34538;48.836;9.174;2024-02-21T12:54:59;13.50;99.90
48744;DHT22;34538;48.836;9.174;2024-02-21T12:57:27;13.50;99.90
48744;DHT22;34538;48.836;9.174;2024-02-21T12:59:54;13.60;99.90
48744;DHT22;34538;48.836;9.174;2024-02-21T13:02:21;13.60;99.90
48744;DHT22;34538;48.836;9.174;2024-02-21T13:04:48;13.60;99.90
48744;DHT22;34538;48.836;9.174;2024-02-21T13:07:15;13.70;99.90
48744;DHT22;34538;48.836;9.174;2024-02-21T13:09:42;13.70;99.90
48744;DHT22;34538;48.836;9.174;2024-02-21T13:12:09;13.70;99.90
48744;DHT22;34538;48.836;9.174;2024-02-21T13:14:37;13.80;99.90
48744;DHT22;34538;48.836;9.174;2024-02-21T13:17:05;13.80;99.90
48744;DHT22;34538;48.836;9.174;2024-02-21T13:19:32;13.80;99.90
48744;DHT22;34538;48.836;9.174;2024-02-21T13:21:59;13.80;99.90
48744;DHT22;34538;48.836;9.174;2024-02-21T13:24:26;13.90;99.90
48744;DHT22;34538;48.836;9.174;2024-02-21T13:26:52;13.90;98.90
48744;DHT22;34538;48.836;9.174;2024-02-21T13:29:19;13.90;99.20
48744;DHT22;34538;48.836;9.174;2024-02-21T13:31:48;13.90;99.40
48744;DHT22;34538;48.836;9.174;2024-02-21T13:34:16;13.90;99.80
48744;DHT22;34538;48.836;9.174;2024-02-21T13:36:43;14.00;99.50
48744;DHT22;34538;48.836;9.174;2024-02-21T13:39:09;14.00;99.90
48744;DHT22;34538;48.836;9.174;2024-02-21T13:41:38;14.00;99.40
48744;DHT22;34538;48.836;9.174;2024-02-21T13:44:06;14.00;99.00
48744;DHT22;34538;48.836;9.174;2024-02-21T13:46:33;14.00;98.90
48744;DHT22;34538;48.836;9.174;2024-02-21T13:49:04;14.00;99.00
48744;DHT22;34538;48.836;9.174;2024-02-21T13:51:32;14.00;99.20
48744;DHT22;34538;48.836;9.174;2024-02-21T13:54:00;14.00;98.80
48744;DHT22;34538;48.836;9.174;2024-02-21T13:56:27;14.00;98.90
48744;DHT22;34538;48.836;9.174;2024-02-21T13:58:54;14.00;98.70
48744;DHT22;34538;48.836;9.174;2024-02-21T14:01:20;14.00;98.90
48744;DHT22;34538;48.836;9.174;2024-02-21T14:03:47;13.90;98.80
48744;DHT22;34538;48.836;9.174;2024-02-21T14:06:15;13.90;98.80
48744;DHT22;34538;48.836;9.174;2024-02-21T14:08:42;13.90;98.40
48744;DHT22;34538;48.836;9.174;2024-02-21T14:11:10;13.90;99.50
48744;DHT22;34538;48.836;9.174;2024-02-21T14:13:37;13.90;98.20
48744;DHT22;34538;48.836;9.174;2024-02-21T14:16:09;14.00;98.20
48744;DHT22;34538;48.836;9.174;2024-02-21T14:18:37;14.00;98.20
48744;DHT22;34538;48.836;9.174;2024-02-21T14:21:04;13.90;97.70
48744;DHT22;34538;48.836;9.174;2024-02-21T14:23:32;13.90;97.90
48744;DHT22;34538;48.836;9.174;2024-02-21T14:26:00;14.00;98.30
48744;DHT22;34538;48.836;9.174;2024-02-21T14:28:26;13.90;98.10
48744;DHT22;34538;48.836;9.174;2024-02-21T14:30:53;13.90;98.10
48744;DHT22;34538;48.836;9.174;2024-02-21T14:33:23;13.90;97.70
48744;DHT22;34538;48.836;9.174;2024-02-21T14:35:50;13.90;98.40
48744;DHT22;34538;48.836;9.174;2024-02-21T14:38:18;13.90;98.50
48744;DHT22;34538;48.836;9.174;2024-02-21T14:40:46;14.00;98.00
48744;DHT22;34538;48.836;9.174;2024-02-21T14:43:13;13.90;97.90
48744;DHT22;34538;48.836;9.174;2024-02-21T14:45:40;14.00;97.80
48744;DHT22;34538;48.836;9.174;2024-02-21T14:48:08;13.90;96.50
48744;DHT22;34538;48.836;9.174;2024-02-21T14:50:35;14.00;96.50
48744;DHT22;34538;48.836;9.174;2024-02-21T14:53:02;13.90;96.80
48744;DHT22;34538;48.836;9.174;2024-02-21T14:55:29;13.90;96.90
48744;DHT22;34538;48.836;9.174;2024-02-21T14:57:57;13.90;97.10
48744;DHT22;34538;48.836;9.174;2024-02-21T15:00:24;13.90;97.00
48744;DHT22;34538;48.836;9.174;2024-02-21T15:02:55;13.90;97.40
48744;DHT22;34538;48.836;9.174;2024-02-21T15:05:23;13.80;96.40
48744;DHT22;34538;48.836;9.174;2024-02-21T15:07:50;13.80;96.20
48744;DHT22;34538;48.836;9.174;2024-02-21T15:10:17;13.80;96.20
48744;DHT22;34538;48.836;9.174;2024-02-21T15:12:44;13.80;96.30
48744;DHT22;34538;48.836;9.174;2024-02-21T15:15:13;13.70;95.60
48744;DHT22;34538;48.836;9.174;2024-02-21T15:17:39;13.70;95.30
48744;DHT22;34538;48.836;9.174;2024-02-21T15:20:07;13.70;95.90
48744;DHT22;34538;48.836;9.174;2024-02-21T15:22:34;13.60;95.80
48744;DHT22;34538;48.836;9.174;2024-02-21T15:25:03;13.60;96.00
48744;DHT22;34538;48.836;9.174;2024-02-21T15:27:31;13.60;96.50
48744;DHT22;34538;48.836;9.174;2024-02-21T15:29:58;13.50;95.30
48744;DHT22;34538;48.836;9.174;2024-02-21T15:32:27;13.50;96.90
48744;DHT22;34538;48.836;9.174;2024-02-21T15:34:54;13.50;95.90
48744;DHT22;34538;48.836;9.174;2024-02-21T15:37:20;13.50;95.60
48744;DHT22;34538;48.836;9.174;2024-02-21T15:39:47;13.40;95.50
48744;DHT22;34538;48.836;9.174;2024-02-21T15:42:14;13.40;95.00